Time;durP1;ratioP1;P1;durP2;ratioP2;P2;SDS_P1;SDS_P2;PMS_P1;PMS_P2;Temp;Humidity;BMP_temperature;BMP_pressure;BME280_temperature;BME280_humidity;BME280_pressure;Samples;Min_cycle;Max_cycle;Signal;HPM_P1;HPM_P2
2020/12/19 00:00:58;;;;;;;;;;;;;;;;;;5052708;28;19913;-68
2020/12/19 00:03:24;;;;;;;;;;;;;;;;;;5052488;28;20004;-68
2020/12/19 00:05:50;;;;;;;;;;;;;;;;;;5050278;28;20444;-68
2020/12/19 00:08:16;;;;;;;;;;;;;;;;;;5041768;28;20000;-69
2020/12/19 00:10:42;;;;;;;;;;;;;;;;;;5046338;28;19915;-68
2020/12/19 00:13:08;;;;;;;;;;;;;;;;;;5050890;28;19972;-68
2020/12/19 00:15:34;;;;;;;;;;;;;;;;;;5050804;28;19916;-68
2020/12/19 00:18:00;;;;;;;;;;;;;;;;;;5051965;28;19916;-68
2020/12/19 00:20:26;;;;;;;;;;;;;;;;;;5051653;28;19913;-68
2020/12/19 00:22:51;;;;;;;;;;;;;;;;;;5052188;28;20361;-68
2020/12/19 00:25:17;;;;;;;;;;;;;;;;;;5053592;28;19949;-69
2020/12/19 00:27:43;;;;;;;;;;;;;;;;;;5057351;28;19936;-69
2020/12/19 00:30:09;;;;;;;;;;;;;;;;;;5063895;28;19909;-69
2020/12/19 00:32:35;;;;;;;;;;;;;;;;;;5063559;28;19931;-69
2020/12/19 00:35:01;;;;;;;;;;;;;;;;;;5050567;28;19917;-68
2020/12/19 00:37:27;;;;;;;;;;;;;;;;;;5043949;28;19951;-70
2020/12/19 00:39:53;;;;;;;;;;;;;;;;;;5041940;28;19999;-69
2020/12/19 00:42:19;;;;;;;;;;;;;;;;;;5041598;28;19917;-69
2020/12/19 00:44:45;;;;;;;;;;;;;;;;;;5050295;28;19909;-70
2020/12/19 00:47:10;;;;;;;;;;;;;;;;;;5051749;28;19947;-70
2020/12/19 00:49:36;;;;;;;;;;;;;;;;;;5051299;28;19908;-69
2020/12/19 00:52:02;;;;;;;;;;;;;;;;;;5051446;28;20492;-69
2020/12/19 00:54:28;;;;;;;;;;;;;;;;;;5051640;28;19924;-68
2020/12/19 00:56:54;;;;;;;;;;;;;;;;;;5051191;28;19915;-68
2020/12/19 00:59:20;;;;;;;;;;;;;;;;;;5051320;28;19915;-68
2020/12/19 01:01:46;;;;;;;;;;;;;;;;;;5051565;28;19912;-68
2020/12/19 01:04:12;;;;;;;;;;;;;;;;;;5050898;28;19908;-68
2020/12/19 01:06:38;;;;;;;;;;;;;;;;;;5029800;28;19964;-69
2020/12/19 01:09:04;;;;;;;;;;;;;;;;;;5031140;28;19955;-68
2020/12/19 01:11:30;;;;;;;;;;;;;;;;;;5039731;28;19959;-68
2020/12/19 01:13:56;;;;;;;;;;;;;;;;;;5047569;28;20454;-68
2020/12/19 01:16:22;;;;;;;;;;;;;;;;;;5041196;28;19909;-68
2020/12/19 01:18:47;;;;;;;;;;;;;;;;;;5044646;28;19916;-68
2020/12/19 01:21:13;;;;;;;;;;;;;;;;;;5051133;28;19909;-68
2020/12/19 01:23:39;;;;;;;;;;;;;;;;;;5050047;28;19905;-68
2020/12/19 01:26:05;;;;;;;;;;;;;;;;;;5051106;28;19948;-68
2020/12/19 01:28:31;;;;;;;;;;;;;;;;;;5058187;28;19952;-68
2020/12/19 01:30:57;;;;;;;;;;;;;;;;;;5064616;28;19909;-68
2020/12/19 01:33:23;;;;;;;;;;;;;;;;;;5064030;28;19912;-68
2020/12/19 01:35:49;;;;;;;;;;;;;;;;;;5051354;28;19909;-68
2020/12/19 01:38:15;;;;;;;;;;;;;;;;;;5050878;28;19909;-68
2020/12/19 01:40:41;;;;;;;;;;;;;;;;;;5051047;28;19964;-68
2020/12/19 01:43:06;;;;;;;;;;;;;;;;;;5049778;28;19916;-69
2020/12/19 01:45:32;;;;;;;;;;;;;;;;;;5045038;28;19960;-68
2020/12/19 01:47:58;;;;;;;;;;;;;;;;;;5041504;28;19995;-68
2020/12/19 01:50:24;;;;;;;;;;;;;;;;;;5049808;28;19909;-69
2020/12/19 01:52:50;;;;;;;;;;;;;;;;;;5051000;28;19909;-69
2020/12/19 01:55:16;;;;;;;;;;;;;;;;;;5050970;28;19952;-69
2020/12/19 01:57:42;;;;;;;;;;;;;;;;;;5049326;28;19995;-69
2020/12/19 02:00:08;;;;;;;;;;;;;;;;;;5050596;28;19948;-69
2020/12/19 02:02:34;;;;;;;;;;;;;;;;;;5049558;28;20003;-69
2020/12/19 02:04:59;;;;;;;;;;;;;;;;;;5049287;28;20375;-69
2020/12/19 02:07:25;;;;;;;;;;;;;;;;;;5042636;28;19956;-68
2020/12/19 02:09:52;;;;;;;;;;;;;;;;;;5046392;28;20007;-69
2020/12/19 02:12:18;;;;;;;;;;;;;;;;;;5050827;28;20575;-69
2020/12/19 02:14:44;;;;;;;;;;;;;;;;;;5050461;28;19951;-68
2020/12/19 02:17:10;;;;;;;;;;;;;;;;;;5053319;28;20019;-69
2020/12/19 02:19:36;;;;;;;;;;;;;;;;;;5054215;28;19904;-69
2020/12/19 02:22:02;;;;;;;;;;;;;;;;;;5054180;28;19956;-69
2020/12/19 02:24:28;;;;;;;;;;;;;;;;;;5054604;28;19974;-69
2020/12/19 02:26:54;;;;;;;;;;;;;;;;;;5054240;28;19994;-69
2020/12/19 02:29:19;;;;;;;;;;;;;;;;;;5052732;28;20384;-68
2020/12/19 02:31:45;;;;;;;;;;;;;;;;;;5052572;28;20288;-69
2020/12/19 02:34:11;;;;;;;;;;;;;;;;;;5054189;28;20288;-69
2020/12/19 02:36:37;;;;;;;;;;;;;;;;;;5051827;28;19948;-69
2020/12/19 02:39:03;;;;;;;;;;;;;;;;;;5045360;28;20454;-68
2020/12/19 02:41:29;;;;;;;;;;;;;;;;;;5053837;28;20253;-69
2020/12/19 02:43:55;;;;;;;;;;;;;;;;;;5053846;28;19916;-69
2020/12/19 02:46:21;;;;;;;;;;;;;;;;;;5053354;28;19956;-69
2020/12/19 02:48:47;;;;;;;;;;;;;;;;;;5052278;28;19909;-69
2020/12/19 02:51:13;;;;;;;;;;;;;;;;;;5052190;28;19913;-69
2020/12/19 02:53:39;;;;;;;;;;;;;;;;;;5053771;28;19912;-69
2020/12/19 02:56:05;;;;;;;;;;;;;;;;;;5052296;28;19915;-69
2020/12/19 02:58:30;;;;;;;;;;;;;;;;;;5052267;28;19996;-69
2020/12/19 03:00:56;;;;;;;;;;;;;;;;;;5052298;28;19952;-69
2020/12/19 03:03:22;;;;;;;;;;;;;;;;;;5053745;28;19952;-69
2020/12/19 03:05:48;;;;;;;;;;;;;;;;;;5051340;28;20003;-69
2020/12/19 03:08:14;;;;;;;;;;;;;;;;;;5043505;28;19909;-69
2020/12/19 03:10:40;;;;;;;;;;;;;;;;;;5041729;28;20288;-69
2020/12/19 03:13:06;;;;;;;;;;;;;;;;;;5031923;28;19909;-69
2020/12/19 03:15:32;;;;;;;;;;;;;;;;;;5036765;28;19956;-69
2020/12/19 03:17:57;;;;;;;;;;;;;;;;;;5044707;28;19999;-69
2020/12/19 03:20:23;;;;;;;;;;;;;;;;;;5052906;28;20459;-69
2020/12/19 03:22:49;;;;;;;;;;;;;;;;;;5051875;28;19912;-69
2020/12/19 03:25:15;;;;;;;;;;;;;;;;;;5053000;28;19999;-69
2020/12/19 03:27:41;;;;;;;;;;;;;;;;;;5052182;28;20384;-69
2020/12/19 03:30:07;;;;;;;;;;;;;;;;;;5052724;28;19908;-68
2020/12/19 03:32:33;;;;;;;;;;;;;;;;;;5052929;28;19959;-69
2020/12/19 03:34:59;;;;;;;;;;;;;;;;;;5051562;28;19963;-69
2020/12/19 03:37:25;;;;;;;;;;;;;;;;;;5051557;28;20395;-68
2020/12/19 03:39:51;;;;;;;;;;;;;;;;;;5052941;28;19909;-69
2020/12/19 03:42:16;;;;;;;;;;;;;;;;;;5051444;28;19971;-70
2020/12/19 03:44:42;;;;;;;;;;;;;;;;;;5052121;28;19982;-69
2020/12/19 03:47:08;;;;;;;;;;;;;;;;;;5041797;28;20004;-70
2020/12/19 03:49:34;;;;;;;;;;;;;;;;;;5052290;28;19955;-69
2020/12/19 03:52:00;;;;;;;;;;;;;;;;;;5051207;28;20008;-69
2020/12/19 03:54:26;;;;;;;;;;;;;;;;;;5051288;28;20007;-69
2020/12/19 03:56:52;;;;;;;;;;;;;;;;;;5052300;28;20000;-69
2020/12/19 03:59:20;;;;;;;;;;;;;;;;;;5050921;28;19909;-69
2020/12/19 04:01:46;;;;;;;;;;;;;;;;;;5052133;28;19909;-68
2020/12/19 04:04:11;;;;;;;;;;;;;;;;;;5034552;28;19960;-69
2020/12/19 04:06:37;;;;;;;;;;;;;;;;;;5032687;28;20393;-69
2020/12/19 04:09:03;;;;;;;;;;;;;;;;;;5040915;28;19996;-69
2020/12/19 04:11:29;;;;;;;;;;;;;;;;;;5052366;28;19908;-69
2020/12/19 04:13:55;;;;;;;;;;;;;;;;;;5052362;28;19908;-69
2020/12/19 04:16:21;;;;;;;;;;;;;;;;;;5050538;28;19991;-69
2020/12/19 04:18:47;;;;;;;;;;;;;;;;;;5050423;28;20024;-69
2020/12/19 04:21:13;;;;;;;;;;;;;;;;;;5051917;28;20392;-69
2020/12/19 04:23:39;;;;;;;;;;;;;;;;;;5050805;28;19909;-69
2020/12/19 04:26:04;;;;;;;;;;;;;;;;;;5050529;28;19924;-69
2020/12/19 04:28:30;;;;;;;;;;;;;;;;;;5051723;28;20394;-68
2020/12/19 04:30:56;;;;;;;;;;;;;;;;;;5051595;28;19909;-69
2020/12/19 04:33:24;;;;;;;;;;;;;;;;;;5051619;28;19912;-68
2020/12/19 04:35:50;;;;;;;;;;;;;;;;;;5050443;28;19909;-69
2020/12/19 04:38:15;;;;;;;;;;;;;;;;;;5042694;28;20292;-69
2020/12/19 04:40:41;;;;;;;;;;;;;;;;;;5045858;28;19952;-68
2020/12/19 04:43:07;;;;;;;;;;;;;;;;;;5050386;28;20046;-69
2020/12/19 04:45:33;;;;;;;;;;;;;;;;;;5051392;28;20375;-69
2020/12/19 04:47:59;;;;;;;;;;;;;;;;;;5051504;28;19915;-68
2020/12/19 04:50:25;;;;;;;;;;;;;;;;;;5051772;28;19915;-69
2020/12/19 04:52:51;;;;;;;;;;;;;;;;;;5051428;28;19940;-69
2020/12/19 04:55:17;;;;;;;;;;;;;;;;;;5051452;28;20008;-69
2020/12/19 04:57:43;;;;;;;;;;;;;;;;;;5049883;28;19913;-69
2020/12/19 05:00:08;;;;;;;;;;;;;;;;;;5051411;28;19991;-69
2020/12/19 05:02:34;;;;;;;;;;;;;;;;;;5050891;28;19909;-69
2020/12/19 05:05:00;;;;;;;;;;;;;;;;;;5050999;28;19909;-68
2020/12/19 05:07:26;;;;;;;;;;;;;;;;;;5043358;28;19948;-68
2020/12/19 05:09:52;;;;;;;;;;;;;;;;;;5043044;28;20311;-69
2020/12/19 05:12:18;;;;;;;;;;;;;;;;;;5051342;28;19915;-68
2020/12/19 05:14:44;;;;;;;;;;;;;;;;;;5050133;28;19915;-68
2020/12/19 05:17:10;;;;;;;;;;;;;;;;;;5041140;28;19909;-69
2020/12/19 05:19:36;;;;;;;;;;;;;;;;;;5044867;28;19945;-69
2020/12/19 05:22:02;;;;;;;;;;;;;;;;;;5040488;28;19909;-69
2020/12/19 05:24:27;;;;;;;;;;;;;;;;;;5031952;28;19924;-69
2020/12/19 05:26:53;;;;;;;;;;;;;;;;;;5030712;28;20337;-69
2020/12/19 05:29:19;;;;;;;;;;;;;;;;;;5030813;28;19913;-69
2020/12/19 05:31:45;;;;;;;;;;;;;;;;;;5030412;28;20284;-69
2020/12/19 05:34:11;;;;;;;;;;;;;;;;;;5030967;28;19916;-69
2020/12/19 05:36:37;;;;;;;;;;;;;;;;;;5030719;28;19945;-69
2020/12/19 05:39:03;;;;;;;;;;;;;;;;;;5034560;28;19916;-69
2020/12/19 05:41:29;;;;;;;;;;;;;;;;;;5051210;28;19951;-69
2020/12/19 05:43:55;;;;;;;;;;;;;;;;;;5051005;28;19956;-69
2020/12/19 05:46:21;;;;;;;;;;;;;;;;;;5049142;28;20013;-69
2020/12/19 05:48:47;;;;;;;;;;;;;;;;;;5049400;28;19913;-69
2020/12/19 05:51:12;;;;;;;;;;;;;;;;;;5052171;28;20408;-68
2020/12/19 05:53:38;;;;;;;;;;;;;;;;;;5054853;28;19955;-69
2020/12/19 05:56:04;;;;;;;;;;;;;;;;;;5054887;28;19959;-69
2020/12/19 05:58:30;;;;;;;;;;;;;;;;;;5054624;28;19909;-68
2020/12/19 06:00:56;;;;;;;;;;;;;;;;;;5053410;28;19949;-69
2020/12/19 06:03:22;;;;;;;;;;;;;;;;;;5054912;28;20052;-69
2020/12/19 06:05:48;;;;;;;;;;;;;;;;;;5053342;28;20005;-69
2020/12/19 06:08:14;;;;;;;;;;;;;;;;;;5045921;28;20042;-68
2020/12/19 06:10:40;;;;;;;;;;;;;;;;;;5048386;28;19977;-69
2020/12/19 06:13:06;;;;;;;;;;;;;;;;;;5054416;28;19915;-69
2020/12/19 06:15:31;;;;;;;;;;;;;;;;;;5054000;28;19915;-68
2020/12/19 06:17:57;;;;;;;;;;;;;;;;;;5052844;28;19909;-69
2020/12/19 06:20:23;;;;;;;;;;;;;;;;;;5054315;28;19913;-69
2020/12/19 06:22:49;;;;;;;;;;;;;;;;;;5054416;28;19915;-69
2020/12/19 06:25:15;;;;;;;;;;;;;;;;;;5054302;28;19920;-69
2020/12/19 06:27:41;;;;;;;;;;;;;;;;;;5054119;28;20292;-70
2020/12/19 06:30:07;;;;;;;;;;;;;;;;;;5054454;28;19909;-69
2020/12/19 06:32:33;;;;;;;;;;;;;;;;;;5058137;28;19915;-69
2020/12/19 06:34:59;;;;;;;;;;;;;;;;;;5063477;28;19909;-69
2020/12/19 06:37:25;;;;;;;;;;;;;;;;;;5063637;28;19920;-66
2020/12/19 06:39:51;;;;;;;;;;;;;;;;;;5050086;28;19909;-69
2020/12/19 06:42:17;;;;;;;;;;;;;;;;;;5052768;28;19909;-69
2020/12/19 06:44:42;;;;;;;;;;;;;;;;;;5053760;28;20357;-68
2020/12/19 06:47:08;;;;;;;;;;;;;;;;;;5052278;28;19921;-69
2020/12/19 06:49:34;;;;;;;;;;;;;;;;;;5053693;28;19931;-69
2020/12/19 06:52:00;;;;;;;;;;;;;;;;;;5053829;28;19909;-69
2020/12/19 06:54:26;;;;;;;;;;;;;;;;;;5053712;28;19944;-69
2020/12/19 06:56:52;;;;;;;;;;;;;;;;;;5053637;28;19913;-69
2020/12/19 06:59:18;;;;;;;;;;;;;;;;;;5053315;28;20344;-69
2020/12/19 07:01:44;;;;;;;;;;;;;;;;;;5053240;28;19983;-70
2020/12/19 07:04:10;;;;;;;;;;;;;;;;;;5052773;28;20007;-70
2020/12/19 07:06:36;;;;;;;;;;;;;;;;;;5050139;28;19965;-69
2020/12/19 07:09:01;;;;;;;;;;;;;;;;;;5040558;28;19996;-70
2020/12/19 07:11:27;;;;;;;;;;;;;;;;;;5052340;28;19916;-69
2020/12/19 07:13:53;;;;;;;;;;;;;;;;;;5053449;28;20007;-70
2020/12/19 07:16:19;;;;;;;;;;;;;;;;;;5053129;28;20400;-70
2020/12/19 07:18:45;;;;;;;;;;;;;;;;;;5053381;28;19909;-70
2020/12/19 07:21:11;;;;;;;;;;;;;;;;;;5041450;28;19937;-69
2020/12/19 07:23:37;;;;;;;;;;;;;;;;;;5031943;28;19952;-70
2020/12/19 07:26:03;;;;;;;;;;;;;;;;;;5033146;28;20028;-69
2020/12/19 07:28:29;;;;;;;;;;;;;;;;;;5032965;28;20348;-69
2020/12/19 07:30:55;;;;;;;;;;;;;;;;;;5030174;28;19960;-69
2020/12/19 07:33:20;;;;;;;;;;;;;;;;;;5035230;28;20008;-69
2020/12/19 07:35:46;;;;;;;;;;;;;;;;;;5038350;28;20399;-69
2020/12/19 07:38:12;;;;;;;;;;;;;;;;;;5038411;28;19923;-69
2020/12/19 07:40:38;;;;;;;;;;;;;;;;;;5036946;28;19940;-69
2020/12/19 07:43:04;;;;;;;;;;;;;;;;;;5031512;28;19909;-69
2020/12/19 07:45:30;;;;;;;;;;;;;;;;;;5031472;28;20376;-69
2020/12/19 07:47:56;;;;;;;;;;;;;;;;;;5031368;28;19960;-69
2020/12/19 07:50:22;;;;;;;;;;;;;;;;;;5032906;28;19949;-68
2020/12/19 07:52:48;;;;;;;;;;;;;;;;;;5032923;28;19952;-69
2020/12/19 07:55:13;;;;;;;;;;;;;;;;;;5031074;28;19951;-69
2020/12/19 07:57:39;;;;;;;;;;;;;;;;;;5031058;28;20202;-69
2020/12/19 08:00:06;;;;;;;;;;;;;;;;;;5032508;28;20347;-69
2020/12/19 08:02:31;;;;;;;;;;;;;;;;;;5032261;28;19913;-69
2020/12/19 08:04:57;;;;;;;;;;;;;;;;;;5032202;28;19913;-69
2020/12/19 08:07:23;;;;;;;;;;;;;;;;;;5034624;28;19908;-70
2020/12/19 08:09:49;;;;;;;;;;;;;;;;;;5039276;28;19915;-68
2020/12/19 08:12:15;;;;;;;;;;;;;;;;;;5032311;28;20320;-67
2020/12/19 08:14:41;;;;;;;;;;;;;;;;;;5030646;28;19949;-69
2020/12/19 08:17:07;;;;;;;;;;;;;;;;;;5031737;28;19909;-69
2020/12/19 08:19:33;;;;;;;;;;;;;;;;;;5030542;28;19909;-68
2020/12/19 08:22:02;;;;;;;;;;;;;;;;;;5032105;28;20337;-68
2020/12/19 08:24:28;;;;;;;;;;;;;;;;;;5032111;28;20464;-68
2020/12/19 08:26:54;;;;;;;;;;;;;;;;;;5030532;28;20000;-70
2020/12/19 08:29:20;;;;;;;;;;;;;;;;;;5031586;28;20004;-69
2020/12/19 08:31:46;;;;;;;;;;;;;;;;;;5031793;28;20288;-69
2020/12/19 08:34:12;;;;;;;;;;;;;;;;;;5030685;28;19913;-70
2020/12/19 08:36:38;;;;;;;;;;;;;;;;;;5031917;28;19913;-69
2020/12/19 08:39:03;;;;;;;;;;;;;;;;;;5043163;28;19920;-69
2020/12/19 08:41:29;;;;;;;;;;;;;;;;;;5034488;28;19963;-69
2020/12/19 08:43:55;;;;;;;;;;;;;;;;;;5029882;28;20363;-70
2020/12/19 08:46:21;;;;;;;;;;;;;;;;;;5030887;28;20003;-70
2020/12/19 08:48:47;;;;;;;;;;;;;;;;;;5031279;28;19920;-70
2020/12/19 08:51:18;;;;;;;;;;;;;;;;;;5031525;28;19952;-69
2020/12/19 08:53:43;;;;;;;;;;;;;;;;;;5030292;28;19963;-69
2020/12/19 08:56:09;;;;;;;;;;;;;;;;;;5031643;28;19909;-70
2020/12/19 08:58:35;;;;;;;;;;;;;;;;;;5031723;28;20365;-70
2020/12/19 09:01:01;;;;;;;;;;;;;;;;;;5030089;28;19959;-69
2020/12/19 09:03:27;;;;;;;;;;;;;;;;;;5031661;28;19913;-69
2020/12/19 09:05:53;;;;;;;;;;;;;;;;;;5038485;28;19944;-70
2020/12/19 09:08:19;;;;;;;;;;;;;;;;;;5052187;28;19917;-69
2020/12/19 09:10:45;;;;;;;;;;;;;;;;;;5045074;28;19909;-69
2020/12/19 09:13:11;;;;;;;;;;;;;;;;;;5030442;28;19910;-69
2020/12/19 09:15:37;;;;;;;;;;;;;;;;;;5024942;28;19953;-70
2020/12/19 09:18:03;;;;;;;;;;;;;;;;;;5029679;28;20320;-70
2020/12/19 09:20:28;;;;;;;;;;;;;;;;;;5029824;28;19970;-69
2020/12/19 09:22:54;;;;;;;;;;;;;;;;;;5029937;28;19913;-70
2020/12/19 09:25:20;;;;;;;;;;;;;;;;;;5031138;28;20339;-69
2020/12/19 09:27:46;;;;;;;;;;;;;;;;;;5033889;28;19913;-69
2020/12/19 09:30:12;;;;;;;;;;;;;;;;;;5035265;28;19920;-69
2020/12/19 09:32:38;;;;;;;;;;;;;;;;;;5035110;28;20277;-69
2020/12/19 09:35:04;;;;;;;;;;;;;;;;;;5035238;28;19920;-70
2020/12/19 09:37:30;;;;;;;;;;;;;;;;;;5035764;28;20381;-70
2020/12/19 09:39:56;;;;;;;;;;;;;;;;;;5044469;28;19999;-70
2020/12/19 09:42:21;;;;;;;;;;;;;;;;;;5033819;28;20230;-67
2020/12/19 09:44:47;;;;;;;;;;;;;;;;;;5034940;28;19959;-68
2020/12/19 09:47:13;;;;;;;;;;;;;;;;;;5034653;28;20003;-68
2020/12/19 09:49:39;;;;;;;;;;;;;;;;;;5034492;28;19909;-68
2020/12/19 09:52:05;;;;;;;;;;;;;;;;;;5034986;28;19915;-68
2020/12/19 09:54:31;;;;;;;;;;;;;;;;;;5033599;28;20371;-68
2020/12/19 09:56:58;;;;;;;;;;;;;;;;;;5034807;28;19955;-68
2020/12/19 09:59:24;;;;;;;;;;;;;;;;;;5033149;28;19916;-69
2020/12/19 10:01:50;;;;;;;;;;;;;;;;;;5034596;28;19909;-69
2020/12/19 10:04:15;;;;;;;;;;;;;;;;;;5033257;28;19909;-70
2020/12/19 10:06:41;;;;;;;;;;;;;;;;;;5032005;28;19971;-69
2020/12/19 10:09:07;;;;;;;;;;;;;;;;;;5034840;28;20004;-69
2020/12/19 10:11:33;;;;;;;;;;;;;;;;;;5033257;28;19948;-69
2020/12/19 10:13:59;;;;;;;;;;;;;;;;;;5033944;28;19947;-69
2020/12/19 10:16:25;;;;;;;;;;;;;;;;;;5032964;28;20361;-69
2020/12/19 10:18:51;;;;;;;;;;;;;;;;;;5032454;28;19916;-70
2020/12/19 10:21:17;;;;;;;;;;;;;;;;;;5031761;28;19913;-69
2020/12/19 10:23:43;;;;;;;;;;;;;;;;;;5033444;28;20381;-70
2020/12/19 10:26:08;;;;;;;;;;;;;;;;;;5033276;28;19918;-69
2020/12/19 10:28:34;;;;;;;;;;;;;;;;;;5032543;28;19913;-68
2020/12/19 10:31:00;;;;;;;;;;;;;;;;;;5032453;28;20372;-69
2020/12/19 10:33:26;;;;;;;;;;;;;;;;;;5032366;28;19913;-69
2020/12/19 10:35:53;;;;;;;;;;;;;;;;;;5032909;28;19909;-70
2020/12/19 10:38:20;;;;;;;;;;;;;;;;;;5035643;28;19917;-70
2020/12/19 10:40:46;;;;;;;;;;;;;;;;;;5039902;28;19916;-68
2020/12/19 10:43:12;;;;;;;;;;;;;;;;;;5034365;28;19913;-70
2020/12/19 10:45:38;;;;;;;;;;;;;;;;;;5034365;28;19951;-68
2020/12/19 10:48:03;;;;;;;;;;;;;;;;;;5032082;28;19909;-69
2020/12/19 10:50:29;;;;;;;;;;;;;;;;;;5033254;28;19922;-70
2020/12/19 10:52:55;;;;;;;;;;;;;;;;;;5033747;28;19944;-69
2020/12/19 10:55:21;;;;;;;;;;;;;;;;;;5033745;28;19917;-70
2020/12/19 10:57:47;;;;;;;;;;;;;;;;;;5033869;28;20398;-68
2020/12/19 11:00:13;;;;;;;;;;;;;;;;;;5033407;28;20043;-69
2020/12/19 11:02:39;;;;;;;;;;;;;;;;;;5032863;28;19963;-69
2020/12/19 11:05:05;;;;;;;;;;;;;;;;;;5033131;28;19975;-67
2020/12/19 11:07:31;;;;;;;;;;;;;;;;;;5032164;28;20400;-67
2020/12/19 11:09:57;;;;;;;;;;;;;;;;;;5036184;28;20032;-66
2020/12/19 11:12:23;;;;;;;;;;;;;;;;;;5032027;28;19956;-67
2020/12/19 11:14:48;;;;;;;;;;;;;;;;;;5031864;28;20443;-67
2020/12/19 11:17:14;;;;;;;;;;;;;;;;;;5031958;28;19909;-68
2020/12/19 11:19:40;;;;;;;;;;;;;;;;;;5031654;28;19954;-68
2020/12/19 11:22:06;;;;;;;;;;;;;;;;;;5032905;28;19956;-67
2020/12/19 11:24:32;;;;;;;;;;;;;;;;;;5033157;28;20607;-68
2020/12/19 11:26:59;;;;;;;;;;;;;;;;;;5033024;28;20016;-68
2020/12/19 11:29:24;;;;;;;;;;;;;;;;;;5031426;28;19910;-68
2020/12/19 11:31:50;;;;;;;;;;;;;;;;;;5031406;28;19909;-68
2020/12/19 11:34:16;;;;;;;;;;;;;;;;;;5032981;28;19909;-68
2020/12/19 11:36:42;;;;;;;;;;;;;;;;;;5032643;28;20365;-69
2020/12/19 11:39:08;;;;;;;;;;;;;;;;;;5035954;28;19944;-68
2020/12/19 11:41:34;;;;;;;;;;;;;;;;;;5032834;28;20007;-68
2020/12/19 11:44:00;;;;;;;;;;;;;;;;;;5032604;28;20372;-68
2020/12/19 11:46:26;;;;;;;;;;;;;;;;;;5031976;28;19913;-67
2020/12/19 11:48:52;;;;;;;;;;;;;;;;;;5031896;28;19960;-68
2020/12/19 11:51:18;;;;;;;;;;;;;;;;;;5033058;28;19944;-67
2020/12/19 11:53:44;;;;;;;;;;;;;;;;;;5034358;28;20499;-68
2020/12/19 11:56:09;;;;;;;;;;;;;;;;;;5031104;28;19956;-68
2020/12/19 11:58:35;;;;;;;;;;;;;;;;;;5032286;28;19955;-68
2020/12/19 12:01:01;;;;;;;;;;;;;;;;;;5032008;28;20013;-68
2020/12/19 12:03:27;;;;;;;;;;;;;;;;;;5032104;28;20351;-68
2020/12/19 12:05:53;;;;;;;;;;;;;;;;;;5031847;28;19979;-68
2020/12/19 12:08:19;;;;;;;;;;;;;;;;;;5032389;28;20293;-67
2020/12/19 12:10:45;;;;;;;;;;;;;;;;;;5032413;28;20388;-68
2020/12/19 12:13:11;;;;;;;;;;;;;;;;;;5031941;28;19963;-68
2020/12/19 12:15:37;;;;;;;;;;;;;;;;;;5031887;28;20380;-68
2020/12/19 12:18:03;;;;;;;;;;;;;;;;;;5031852;28;20395;-68
2020/12/19 12:20:29;;;;;;;;;;;;;;;;;;5030589;28;20514;-69
2020/12/19 12:22:55;;;;;;;;;;;;;;;;;;5033978;28;19909;-68
2020/12/19 12:25:21;;;;;;;;;;;;;;;;;;5035572;28;19951;-67
2020/12/19 12:27:47;;;;;;;;;;;;;;;;;;5031566;28;20007;-68
2020/12/19 12:30:13;;;;;;;;;;;;;;;;;;5031681;28;20015;-68
2020/12/19 12:32:38;;;;;;;;;;;;;;;;;;5030169;28;19915;-69
2020/12/19 12:35:04;;;;;;;;;;;;;;;;;;5031665;28;20000;-68
2020/12/19 12:37:30;;;;;;;;;;;;;;;;;;5031667;28;20434;-68
2020/12/19 12:39:56;;;;;;;;;;;;;;;;;;5031930;28;19925;-69
2020/12/19 12:42:22;;;;;;;;;;;;;;;;;;5031939;28;20419;-69
2020/12/19 12:44:48;;;;;;;;;;;;;;;;;;5031394;28;20006;-69
2020/12/19 12:47:14;;;;;;;;;;;;;;;;;;5031120;28;19964;-69
2020/12/19 12:49:40;;;;;;;;;;;;;;;;;;5031357;28;19948;-68
2020/12/19 12:52:06;;;;;;;;;;;;;;;;;;5045269;28;19955;-69
2020/12/19 12:54:32;;;;;;;;;;;;;;;;;;5044435;28;20419;-70
2020/12/19 12:56:57;;;;;;;;;;;;;;;;;;5036456;28;20381;-68
2020/12/19 12:59:23;;;;;;;;;;;;;;;;;;5030130;28;19916;-69
2020/12/19 13:01:49;;;;;;;;;;;;;;;;;;5028644;28;19921;-69
2020/12/19 13:04:15;;;;;;;;;;;;;;;;;;5029414;28;19909;-68
2020/12/19 13:06:41;;;;;;;;;;;;;;;;;;5029529;28;20003;-69
2020/12/19 13:09:07;;;;;;;;;;;;;;;;;;5027869;28;19910;-68
2020/12/19 13:11:33;;;;;;;;;;;;;;;;;;5029462;28;19917;-69
2020/12/19 13:13:59;;;;;;;;;;;;;;;;;;5030079;28;19909;-68
2020/12/19 13:16:25;;;;;;;;;;;;;;;;;;5030991;28;19915;-69
2020/12/19 13:18:51;;;;;;;;;;;;;;;;;;5030727;28;19909;-68
2020/12/19 13:21:17;;;;;;;;;;;;;;;;;;5030003;28;19910;-69
2020/12/19 13:23:43;;;;;;;;;;;;;;;;;;5030432;28;20321;-69
2020/12/19 13:26:09;;;;;;;;;;;;;;;;;;5030615;28;19919;-68
2020/12/19 13:28:35;;;;;;;;;;;;;;;;;;5029838;28;19916;-68
2020/12/19 13:31:01;;;;;;;;;;;;;;;;;;5030793;28;19963;-68
2020/12/19 13:33:27;;;;;;;;;;;;;;;;;;5030393;28;20010;-69
2020/12/19 13:35:53;;;;;;;;;;;;;;;;;;5029413;28;20389;-68
2020/12/19 13:38:19;;;;;;;;;;;;;;;;;;5030522;28;19944;-68
2020/12/19 13:40:46;;;;;;;;;;;;;;;;;;5030784;28;19913;-68
2020/12/19 13:43:12;;;;;;;;;;;;;;;;;;5030234;28;19918;-68
2020/12/19 13:45:38;;;;;;;;;;;;;;;;;;5030468;28;20014;-69
2020/12/19 13:48:04;;;;;;;;;;;;;;;;;;5029358;28;19960;-68
2020/12/19 13:50:30;;;;;;;;;;;;;;;;;;5029324;28;20440;-69
2020/12/19 13:52:56;;;;;;;;;;;;;;;;;;5031884;28;19916;-69
2020/12/19 13:55:22;;;;;;;;;;;;;;;;;;5029945;28;19913;-68
2020/12/19 13:57:48;;;;;;;;;;;;;;;;;;5030163;28;20367;-67
2020/12/19 14:00:13;;;;;;;;;;;;;;;;;;5030908;28;19960;-68
2020/12/19 14:02:39;;;;;;;;;;;;;;;;;;5025875;28;19948;-69
2020/12/19 14:05:05;;;;;;;;;;;;;;;;;;5030257;28;20035;-69
2020/12/19 14:07:31;;;;;;;;;;;;;;;;;;5030321;28;20360;-68
2020/12/19 14:09:57;;;;;;;;;;;;;;;;;;5030461;28;20008;-69
2020/12/19 14:12:23;;;;;;;;;;;;;;;;;;5030134;28;19924;-68
2020/12/19 14:14:49;;;;;;;;;;;;;;;;;;5034116;28;20388;-69
2020/12/19 14:17:15;;;;;;;;;;;;;;;;;;5033926;28;20388;-68
2020/12/19 14:19:41;;;;;;;;;;;;;;;;;;5033691;28;19917;-69
2020/12/19 14:22:06;;;;;;;;;;;;;;;;;;5033797;28;20441;-68
2020/12/19 14:24:32;;;;;;;;;;;;;;;;;;5034640;28;19909;-69
2020/12/19 14:26:58;;;;;;;;;;;;;;;;;;5033967;28;19929;-68
2020/12/19 14:29:24;;;;;;;;;;;;;;;;;;5027589;28;20276;-69
2020/12/19 14:31:50;;;;;;;;;;;;;;;;;;5032956;28;19909;-69
2020/12/19 14:34:16;;;;;;;;;;;;;;;;;;5032763;28;20004;-69
2020/12/19 14:36:42;;;;;;;;;;;;;;;;;;5032822;28;19963;-69
2020/12/19 14:39:08;;;;;;;;;;;;;;;;;;5033911;28;19989;-69
2020/12/19 14:41:34;;;;;;;;;;;;;;;;;;5033781;28;19917;-69
2020/12/19 14:44:00;;;;;;;;;;;;;;;;;;5034127;28;19948;-69
2020/12/19 14:46:26;;;;;;;;;;;;;;;;;;5034163;28;19999;-70
2020/12/19 14:48:54;;;;;;;;;;;;;;;;;;5032692;28;20369;-70
2020/12/19 14:51:20;;;;;;;;;;;;;;;;;;5036749;28;19916;-70
2020/12/19 14:53:46;;;;;;;;;;;;;;;;;;5041963;28;19913;-69
2020/12/19 14:56:13;;;;;;;;;;;;;;;;;;5033715;28;19913;-70
2020/12/19 14:58:39;;;;;;;;;;;;;;;;;;5033147;28;20482;-70
2020/12/19 15:01:04;;;;;;;;;;;;;;;;;;5033682;28;19959;-69
2020/12/19 15:03:30;;;;;;;;;;;;;;;;;;5031986;28;19909;-69
2020/12/19 15:05:56;;;;;;;;;;;;;;;;;;5033218;28;20032;-69
2020/12/19 15:08:22;;;;;;;;;;;;;;;;;;5031728;28;19959;-71
2020/12/19 15:10:48;;;;;;;;;;;;;;;;;;5033155;28;19988;-68
2020/12/19 15:13:14;;;;;;;;;;;;;;;;;;5033472;28;19916;-69
2020/12/19 15:15:40;;;;;;;;;;;;;;;;;;5033316;28;19910;-69
2020/12/19 15:18:06;;;;;;;;;;;;;;;;;;5031856;28;19956;-71
2020/12/19 15:20:32;;;;;;;;;;;;;;;;;;5031809;28;19948;-70
2020/12/19 15:22:58;;;;;;;;;;;;;;;;;;5036689;28;19944;-70
2020/12/19 15:25:24;;;;;;;;;;;;;;;;;;5030930;28;20288;-69
2020/12/19 15:27:50;;;;;;;;;;;;;;;;;;5032820;28;19995;-69
2020/12/19 15:30:15;;;;;;;;;;;;;;;;;;5033020;28;19971;-70
2020/12/19 15:32:41;;;;;;;;;;;;;;;;;;5032898;28;20400;-69
2020/12/19 15:35:07;;;;;;;;;;;;;;;;;;5035499;28;19909;-69
2020/12/19 15:37:33;;;;;;;;;;;;;;;;;;5038537;28;19916;-69
2020/12/19 15:39:59;;;;;;;;;;;;;;;;;;5049479;28;19913;-70
2020/12/19 15:42:25;;;;;;;;;;;;;;;;;;5041552;28;20377;-70
2020/12/19 15:44:51;;;;;;;;;;;;;;;;;;5031407;28;19963;-70
2020/12/19 15:47:17;;;;;;;;;;;;;;;;;;5031178;28;19964;-69
2020/12/19 15:49:43;;;;;;;;;;;;;;;;;;5032680;28;19948;-70
2020/12/19 15:52:09;;;;;;;;;;;;;;;;;;5037418;28;19952;-69
2020/12/19 15:54:35;;;;;;;;;;;;;;;;;;5038556;28;20036;-68
2020/12/19 15:57:01;;;;;;;;;;;;;;;;;;5033329;28;20356;-69
2020/12/19 15:59:28;;;;;;;;;;;;;;;;;;5032586;28;19909;-69
2020/12/19 16:01:54;;;;;;;;;;;;;;;;;;5032905;28;19918;-70
2020/12/19 16:04:20;;;;;;;;;;;;;;;;;;5032459;28;19913;-69
2020/12/19 16:06:45;;;;;;;;;;;;;;;;;;5032190;28;20380;-70
2020/12/19 16:09:11;;;;;;;;;;;;;;;;;;5032188;28;20456;-69
2020/12/19 16:11:37;;;;;;;;;;;;;;;;;;5043044;28;19952;-68
2020/12/19 16:14:03;;;;;;;;;;;;;;;;;;5032988;28;19937;-70
2020/12/19 16:16:29;;;;;;;;;;;;;;;;;;5032181;28;19946;-70
2020/12/19 16:18:55;;;;;;;;;;;;;;;;;;5031492;28;20401;-69
2020/12/19 16:21:21;;;;;;;;;;;;;;;;;;5032026;28;20392;-71
2020/12/19 16:23:47;;;;;;;;;;;;;;;;;;5032133;28;20451;-68
2020/12/19 16:26:13;;;;;;;;;;;;;;;;;;5032050;28;20506;-68
2020/12/19 16:28:40;;;;;;;;;;;;;;;;;;5031653;28;19909;-68
2020/12/19 16:31:06;;;;;;;;;;;;;;;;;;5041923;28;19917;-70
2020/12/19 16:33:31;;;;;;;;;;;;;;;;;;5031343;28;19917;-69
2020/12/19 16:35:57;;;;;;;;;;;;;;;;;;5032202;28;19988;-69